createdAt,value
2019-02-20T00:00:10.119Z,28.00
2019-02-20T00:05:07.693Z,24.90
2019-02-20T00:10:04.723Z,29.40
2019-02-20T00:15:01.701Z,22.10
2019-02-20T00:19:58.729Z,25.97
2019-02-20T00:24:57.773Z,26.17
2019-02-20T00:29:54.770Z,25.93
2019-02-20T00:34:51.887Z,24.70
2019-02-20T00:39:48.930Z,26.13
2019-02-20T00:44:54.944Z,25.93
2019-02-20T00:49:51.910Z,31.87
2019-02-20T00:54:48.866Z,33.73
2019-02-20T00:59:45.842Z,43.33
2019-02-20T01:04:42.912Z,39.60
2019-02-20T01:09:41.769Z,31.83
2019-02-20T01:14:38.787Z,29.00
2019-02-20T01:19:35.789Z,36.37
2019-02-20T01:24:32.795Z,34.70
2019-02-20T01:29:30.235Z,30.43
2019-02-20T01:34:27.209Z,25.77
2019-02-20T01:39:24.326Z,25.47
2019-02-20T01:44:21.414Z,26.30
2019-02-20T01:49:18.391Z,28.20
2019-02-20T01:54:15.426Z,28.23
2019-02-20T01:59:14.247Z,31.13
2019-02-20T02:04:11.245Z,32.10
2019-02-20T02:09:08.448Z,28.13
2019-02-20T02:14:05.569Z,24.43
2019-02-20T02:19:02.560Z,33.77
2019-02-20T02:23:59.555Z,25.57
2019-02-20T02:28:56.730Z,29.67
2019-02-20T02:33:55.629Z,39.63
2019-02-20T02:38:52.638Z,33.43
2019-02-20T02:43:49.835Z,36.33
2019-02-20T02:48:46.901Z,43.53
2019-02-20T02:53:44.003Z,42.80
2019-02-20T02:58:41.059Z,43.17
2019-02-20T03:03:38.219Z,46.80
2019-02-20T03:08:35.221Z,38.73
2019-02-20T03:13:32.289Z,44.70
2019-02-20T03:18:29.234Z,42.87
2019-02-20T03:23:26.214Z,48.67
2019-02-20T03:28:23.162Z,43.57
2019-02-20T03:33:20.162Z,45.27
2019-02-20T03:38:17.331Z,46.80
2019-02-20T03:43:14.475Z,41.13
2019-02-20T03:48:11.571Z,38.53
2019-02-20T03:53:08.743Z,41.40
2019-02-20T03:58:05.729Z,34.80
2019-02-20T04:03:02.859Z,35.83
2019-02-20T04:07:59.881Z,37.47
2019-02-20T04:12:56.988Z,33.73
2019-02-20T04:17:54.106Z,36.63
2019-02-20T04:22:51.225Z,33.57
2019-02-20T04:27:48.255Z,32.80
2019-02-20T04:32:45.301Z,29.07
2019-02-20T04:37:42.248Z,32.77
2019-02-20T04:42:39.354Z,27.00
2019-02-20T04:47:36.753Z,30.83
2019-02-20T04:52:35.839Z,30.83
2019-02-20T04:57:32.813Z,26.87
2019-02-20T05:02:29.832Z,26.40
2019-02-20T05:07:26.804Z,26.47
2019-02-20T05:12:23.871Z,24.77
2019-02-20T05:17:21.038Z,21.00
2019-02-20T05:22:18.115Z,22.97
2019-02-20T05:27:15.055Z,24.70
2019-02-20T05:32:12.166Z,21.20
2019-02-20T05:37:09.149Z,22.43
2019-02-20T05:42:06.340Z,21.20
2019-02-20T05:47:03.433Z,21.57
2019-02-20T05:52:00.510Z,23.07
2019-02-20T05:56:59.078Z,22.53
2019-02-20T06:02:00.196Z,26.07
2019-02-20T06:06:57.130Z,25.97
2019-02-20T06:11:54.335Z,24.07
2019-02-20T06:16:51.366Z,27.60
2019-02-20T06:21:54.114Z,24.13
2019-02-20T06:26:51.131Z,21.83
2019-02-20T06:31:48.215Z,23.30
2019-02-20T06:36:45.152Z,24.20
2019-02-20T06:41:44.057Z,20.77
2019-02-20T06:46:41.071Z,27.70
2019-02-20T06:51:40.842Z,25.30
2019-02-20T06:56:37.951Z,23.60
2019-02-20T07:01:35.964Z,25.73
2019-02-20T07:06:59.686Z,21.27
2019-02-20T07:12:17.239Z,21.53
2019-02-20T07:17:47.859Z,23.27
2019-02-20T07:23:24.105Z,23.33
2019-02-20T07:28:36.725Z,23.27
2019-02-20T07:33:33.990Z,23.23
2019-02-20T07:38:32.979Z,21.63
2019-02-20T07:43:30.380Z,22.90
2019-02-20T07:48:30.334Z,25.43
2019-02-20T07:53:31.423Z,23.40
2019-02-20T07:58:29.988Z,27.23
2019-02-20T08:03:29.529Z,24.70
2019-02-20T08:08:26.217Z,23.60
2019-02-20T08:13:26.638Z,25.10
2019-02-20T08:18:24.483Z,23.60
2019-02-20T08:23:23.493Z,24.97
2019-02-20T08:47:53.408Z,22.13
2019-02-20T12:11:58.486Z,11.27
2019-02-20T12:16:55.772Z,9.70
2019-02-20T12:21:52.975Z,13.67
2019-02-20T12:26:52.830Z,10.57
2019-02-20T12:31:52.700Z,9.17
2019-02-20T12:36:50.991Z,7.47
2019-02-20T12:41:49.281Z,8.63
2019-02-20T12:46:50.280Z,10.40
2019-02-20T12:51:52.717Z,8.93
2019-02-20T12:56:49.926Z,8.40
2019-02-20T13:01:49.707Z,8.80
2019-02-20T13:06:46.980Z,8.50
2019-02-20T13:11:45.844Z,7.03
2019-02-20T13:16:42.954Z,7.27
2019-02-20T13:21:45.567Z,6.37
2019-02-20T13:26:53.192Z,6.93
2019-02-20T13:31:49.523Z,8.27
2019-02-20T13:36:46.606Z,9.27
2019-02-20T13:41:49.829Z,9.67
2019-02-20T13:46:58.759Z,8.43
2019-02-20T13:52:02.107Z,9.50
2019-02-20T13:57:03.380Z,6.90
2019-02-20T14:02:10.037Z,7.07
2019-02-20T14:07:11.484Z,7.13
2019-02-20T14:12:12.986Z,11.30
2019-02-20T14:17:15.393Z,7.70
2019-02-20T14:22:21.376Z,7.97
2019-02-20T14:27:32.107Z,7.20
2019-02-20T14:32:23.561Z,6.33
2019-02-20T14:37:23.379Z,5.57
2019-02-20T14:42:29.430Z,7.17
2019-02-20T14:47:28.390Z,6.97
2019-02-20T14:52:25.489Z,6.97
2019-02-20T14:57:23.334Z,6.80
2019-02-20T15:02:22.923Z,7.43
2019-02-20T15:07:23.803Z,7.30
2019-02-20T15:12:26.042Z,7.00
2019-02-20T15:17:24.289Z,8.77
2019-02-20T15:22:22.856Z,9.03
2019-02-20T15:27:28.718Z,9.03
2019-02-20T15:32:22.016Z,7.37
2019-02-20T15:37:19.070Z,7.83
2019-02-20T15:42:16.608Z,8.60
2019-02-20T15:47:13.844Z,8.20
2019-02-20T15:52:10.996Z,7.87
2019-02-20T15:57:08.033Z,8.87
2019-02-20T16:02:07.271Z,9.80
2019-02-20T16:07:04.374Z,10.27
2019-02-20T16:12:01.509Z,8.27
2019-02-20T16:16:58.827Z,9.80
2019-02-20T16:21:55.940Z,9.83
2019-02-20T16:26:55.795Z,11.03
2019-02-20T16:31:53.287Z,10.57
2019-02-20T16:36:50.358Z,13.97
2019-02-20T16:41:47.480Z,13.93
2019-02-20T16:46:44.874Z,16.57
2019-02-20T16:51:41.935Z,17.20
2019-02-20T16:56:41.583Z,17.43
2019-02-20T17:01:38.636Z,15.00
2019-02-20T17:06:35.709Z,19.30
2019-02-20T17:11:33.398Z,22.37
2019-02-20T17:16:30.610Z,22.20
2019-02-20T17:21:27.858Z,17.27
2019-02-20T17:26:25.230Z,15.90
2019-02-20T17:31:22.312Z,14.30
2019-02-20T17:36:22.413Z,14.97
2019-02-20T17:41:19.725Z,14.90
2019-02-20T17:46:18.845Z,21.30
2019-02-20T17:51:16.135Z,17.17
2019-02-20T17:56:13.178Z,23.50
2019-02-20T18:01:12.286Z,23.57
2019-02-20T18:06:09.252Z,23.20
2019-02-20T18:11:07.490Z,21.23
2019-02-20T18:16:05.741Z,43.27
2019-02-20T18:21:02.887Z,32.97
2019-02-20T18:25:59.874Z,24.47
2019-02-20T18:30:56.948Z,20.00
2019-02-20T18:35:55.801Z,19.40
2019-02-20T18:40:52.858Z,21.33
2019-02-20T18:45:52.233Z,16.40
2019-02-20T18:50:51.081Z,20.53
2019-02-20T18:55:48.159Z,18.53
2019-02-20T19:00:45.554Z,19.57
2019-02-20T19:05:42.717Z,17.90
2019-02-20T19:10:40.807Z,21.57
2019-02-20T19:15:49.250Z,19.30
2019-02-20T19:20:57.428Z,17.13
2019-02-20T19:26:33.522Z,18.73
2019-02-20T19:31:57.464Z,16.97
2019-02-20T19:37:12.317Z,18.53
2019-02-20T19:42:26.080Z,17.83
2019-02-20T19:48:02.054Z,15.80
2019-02-20T19:53:07.349Z,16.07
2019-02-20T19:58:30.135Z,17.13
2019-02-20T20:04:04.406Z,18.17
2019-02-20T20:09:28.397Z,19.07
2019-02-20T20:14:40.040Z,17.67
2019-02-20T20:19:45.496Z,18.67
2019-02-20T20:24:59.708Z,20.77
2019-02-20T20:30:05.737Z,18.40
2019-02-20T20:35:32.547Z,16.27
2019-02-20T20:40:44.788Z,15.80
2019-02-20T20:46:11.667Z,18.07
2019-02-20T20:51:58.550Z,17.37
2019-02-20T20:57:19.265Z,19.23
2019-02-20T21:02:30.631Z,18.07
2019-02-20T21:07:53.027Z,16.97
2019-02-20T21:13:24.477Z,17.07
2019-02-20T21:19:00.936Z,14.93
2019-02-20T21:24:47.346Z,16.83
2019-02-20T21:29:58.978Z,17.83
2019-02-20T21:35:10.357Z,18.53
2019-02-20T21:40:25.170Z,16.67
2019-02-20T21:45:45.468Z,15.87
2019-02-20T21:51:26.053Z,15.57
2019-02-20T21:56:49.941Z,15.27
2019-02-20T22:02:04.606Z,15.70
2019-02-20T22:07:32.836Z,15.17
2019-02-20T22:12:53.185Z,16.87
2019-02-20T22:18:21.051Z,15.73
2019-02-20T22:23:46.731Z,12.57
2019-02-20T22:28:58.042Z,14.00
2019-02-20T22:34:38.455Z,15.63
2019-02-20T22:39:53.025Z,13.13
2019-02-20T22:45:33.464Z,14.30
2019-02-20T22:51:11.772Z,13.47
2019-02-20T22:56:45.816Z,13.30
2019-02-20T23:02:12.507Z,13.90
2019-02-20T23:07:20.489Z,11.57
2019-02-20T23:12:49.258Z,13.37
2019-02-20T23:17:46.227Z,12.87
2019-02-20T23:22:43.333Z,11.90
2019-02-20T23:27:40.356Z,13.50
2019-02-20T23:32:37.369Z,11.97
2019-02-20T23:37:34.433Z,12.83
2019-02-20T23:42:33.356Z,12.07
2019-02-20T23:47:32.441Z,11.03
2019-02-20T23:52:29.481Z,12.27
2019-02-20T23:57:26.497Z,12.30
